FCBB/BZV METAR and TAF weather

Enter ICAO airport designator
Station Type Date Time Source
FCBB METAR 2021/09/28 16:00 UTC NOAA

FCBB 281600Z 28007KT 250V320 6000 FEW026CB 32/21 Q1008 NOSIG


Station Type Date Time Source
FCBB Decoded METAR 2021/09/28 16:00 UTC NOAA

Brazzaville / Maya-Maya, Congo, Republic of the (FCBB) 04-15S 015-15E 316M
Sep 28, 2021 - 12:00 PM EDT / 2021.09.28 1600 UTC
Wind: from the W (280 degrees) at 8 MPH (7 KT) (direction variable):0
Visibility: 3 mile(s):0
Sky conditions: mostly clear
Weather: Cumulonimbus clouds observed
Temperature: 89 F (32 C)
Dew Point: 69 F (21 C)
Relative Humidity: 52%
Pressure (altimeter): 29.77 in. Hg (1008 hPa)
ob: FCBB 281600Z 28007KT 250V320 6000 FEW026CB 32/21 Q1008 NOSIG
cycle: 16

Station Type Date Time Source
FCBB TAF 2021/09/28 18:06 UTC NOAA

TAF TAF FCBB 281700Z 2818/2924 26004KT 7000 TS FEW020 FEW030CB
BECMG 2820/2823 NSW SCT018 PROB30 2916/2920 FEW020 FEW030CB

Example: see airport list